Pontyclun, United Kingdom
Current Conditions -  °F | °C
As of 9:20 AM on Monday 24 Nov 2014 (Local Time) from EGFF Reporting Station
Few Clouds Few Clouds  
Wind Chill: 32°   Ceiling: Unl
Heat Index: 36°   Visibility: 6mi
Dew Point: 34°   Wind: 5mph
Humidity: 93%   Direction: 20°NNE
Pressure: 30.33"   Gusts: NA
Location:  51.54°N, 3.39°W
Report Text: EGFF 240920Z 02004KT 9999 FEW019 02/01 Q1027
Loading
Personal Weather Stations






























Interactive Weather Map New forecast layout! Learn more

10-Day Weather Forecast

Advertisements
Track Severe Weather on mobile